sensor_id;sensor_type;location;lat;lon;timestamp;pressure;altitude;pressure_sealevel;temperature;humidity
71504;BME280;59323;50.874;7.028;2023-02-19T00:01:28;101578.69;;;9.62;100.00
71504;BME280;59323;50.874;7.028;2023-02-19T00:04:01;101579.81;;;9.61;100.00
71504;BME280;59323;50.874;7.028;2023-02-19T00:06:29;101564.66;;;9.60;100.00
71504;BME280;59323;50.874;7.028;2023-02-19T00:08:55;101571.22;;;9.59;100.00
71504;BME280;59323;50.874;7.028;2023-02-19T00:11:23;101576.63;;;9.59;100.00
71504;BME280;59323;50.874;7.028;2023-02-19T00:13:51;101567.25;;;9.56;100.00
71504;BME280;59323;50.874;7.028;2023-02-19T00:16:25;101565.66;;;9.55;100.00
71504;BME280;59323;50.874;7.028;2023-02-19T00:18:52;101562.50;;;9.53;100.00
71504;BME280;59323;50.874;7.028;2023-02-19T00:21:18;101572.00;;;9.59;100.00
71504;BME280;59323;50.874;7.028;2023-02-19T00:23:53;101559.09;;;9.56;100.00
71504;BME280;59323;50.874;7.028;2023-02-19T00:26:19;101562.16;;;9.54;100.00
71504;BME280;59323;50.874;7.028;2023-02-19T00:28:45;101559.44;;;9.54;100.00
71504;BME280;59323;50.874;7.028;2023-02-19T00:33:50;101560.56;;;9.53;100.00
71504;BME280;59323;50.874;7.028;2023-02-19T00:36:16;101558.19;;;9.52;100.00
71504;BME280;59323;50.874;7.028;2023-02-19T00:38:43;101559.78;;;9.53;100.00
71504;BME280;59323;50.874;7.028;2023-02-19T00:41:09;101553.22;;;9.54;100.00
71504;BME280;59323;50.874;7.028;2023-02-19T00:43:46;101557.84;;;9.53;100.00
71504;BME280;59323;50.874;7.028;2023-02-19T00:46:11;101553.22;;;9.54;100.00
71504;BME280;59323;50.874;7.028;2023-02-19T00:48:37;101551.97;;;9.51;100.00
71504;BME280;59323;50.874;7.028;2023-02-19T00:51:03;101554.69;;;9.51;100.00
71504;BME280;59323;50.874;7.028;2023-02-19T00:53:28;101548.47;;;9.51;100.00
71504;BME280;59323;50.874;7.028;2023-02-19T00:55:53;101533.66;;;9.48;100.00
71504;BME280;59323;50.874;7.028;2023-02-19T00:58:19;101541.47;;;9.50;100.00
71504;BME280;59323;50.874;7.028;2023-02-19T01:00:44;101544.28;;;9.53;100.00
71504;BME280;59323;50.874;7.028;2023-02-19T01:03:10;101534.69;;;9.56;100.00
71504;BME280;59323;50.874;7.028;2023-02-19T01:05:35;101543.16;;;9.54;100.00
71504;BME280;59323;50.874;7.028;2023-02-19T01:08:00;101519.19;;;9.57;100.00
71504;BME280;59323;50.874;7.028;2023-02-19T01:10:26;101516.25;;;9.62;100.00
71504;BME280;59323;50.874;7.028;2023-02-19T01:12:51;101520.09;;;9.61;100.00
71504;BME280;59323;50.874;7.028;2023-02-19T01:15:16;101528.59;;;9.59;100.00
71504;BME280;59323;50.874;7.028;2023-02-19T01:17:42;101527.34;;;9.57;100.00
71504;BME280;59323;50.874;7.028;2023-02-19T01:20:07;101533.66;;;9.61;100.00
71504;BME280;59323;50.874;7.028;2023-02-19T01:22:33;101531.31;;;9.59;100.00
71504;BME280;59323;50.874;7.028;2023-02-19T01:24:58;101528.94;;;9.58;100.00
71504;BME280;59323;50.874;7.028;2023-02-19T01:27:23;101526.53;;;9.56;100.00
71504;BME280;59323;50.874;7.028;2023-02-19T01:29:49;101519.53;;;9.55;100.00
71504;BME280;59323;50.874;7.028;2023-02-19T01:32:14;101519.19;;;9.57;100.00
71504;BME280;59323;50.874;7.028;2023-02-19T01:34:39;101512.88;;;9.52;100.00
71504;BME280;59323;50.874;7.028;2023-02-19T01:37:05;101511.41;;;9.55;100.00
71504;BME280;59323;50.874;7.028;2023-02-19T01:39:32;101511.75;;;9.53;100.00
71504;BME280;59323;50.874;7.028;2023-02-19T01:41:57;101524.50;;;9.53;100.00
71504;BME280;59323;50.874;7.028;2023-02-19T01:46:48;101520.09;;;9.48;100.00
71504;BME280;59323;50.874;7.028;2023-02-19T01:49:27;101521.69;;;9.49;100.00
71504;BME280;59323;50.874;7.028;2023-02-19T01:54:24;101525.75;;;9.56;100.00
71504;BME280;59323;50.874;7.028;2023-02-19T01:56:53;101512.19;;;9.56;100.00
71504;BME280;59323;50.874;7.028;2023-02-19T01:59:18;101519.53;;;9.55;100.00
71504;BME280;59323;50.874;7.028;2023-02-19T02:01:44;101527.34;;;9.57;100.00
71504;BME280;59323;50.874;7.028;2023-02-19T02:04:12;101520.91;;;9.61;100.00
71504;BME280;59323;50.874;7.028;2023-02-19T02:06:43;101523.59;;;9.61;100.00
71504;BME280;59323;50.874;7.028;2023-02-19T02:09:12;101517.72;;;9.59;100.00
71504;BME280;59323;50.874;7.028;2023-02-19T02:11:56;101527.91;;;9.62;100.00
71504;BME280;59323;50.874;7.028;2023-02-19T02:14:26;101517.16;;;9.66;100.00
71504;BME280;59323;50.874;7.028;2023-02-19T02:17:00;101521.47;;;9.67;100.00
71504;BME280;59323;50.874;7.028;2023-02-19T02:22:43;101519.88;;;9.66;100.00
71504;BME280;59323;50.874;7.028;2023-02-19T02:28:56;101510.38;;;9.72;100.00
71504;BME280;59323;50.874;7.028;2023-02-19T02:31:29;101506.88;;;9.71;100.00
71504;BME280;59323;50.874;7.028;2023-02-19T02:34:01;101513.09;;;9.72;100.00
71504;BME280;59323;50.874;7.028;2023-02-19T02:36:37;101511.31;;;9.76;100.00
71504;BME280;59323;50.874;7.028;2023-02-19T02:39:07;101511.63;;;9.74;100.00
71504;BME280;59323;50.874;7.028;2023-02-19T02:41:42;101516.25;;;9.74;100.00
71504;BME280;59323;50.874;7.028;2023-02-19T02:44:08;101513.25;;;9.75;100.00
71504;BME280;59323;50.874;7.028;2023-02-19T02:46:35;101511.78;;;9.78;100.00
71504;BME280;59323;50.874;7.028;2023-02-19T02:49:04;101503.50;;;9.74;100.00
71504;BME280;59323;50.874;7.028;2023-02-19T02:51:56;101508.13;;;9.74;100.00
71504;BME280;59323;50.874;7.028;2023-02-19T02:54:31;101509.94;;;9.70;100.00
71504;BME280;59323;50.874;7.028;2023-02-19T02:57:33;101515.13;;;9.63;100.00
71504;BME280;59323;50.874;7.028;2023-02-19T02:59:58;101515.13;;;9.63;100.00
71504;BME280;59323;50.874;7.028;2023-02-19T03:02:27;101505.88;;;9.64;100.00
71504;BME280;59323;50.874;7.028;2023-02-19T03:07:48;101512.09;;;9.64;100.00
71504;BME280;59323;50.874;7.028;2023-02-19T03:10:21;101511.97;;;9.61;100.00
71504;BME280;59323;50.874;7.028;2023-02-19T03:12:49;101514.56;;;9.57;100.00
71504;BME280;59323;50.874;7.028;2023-02-19T03:15:37;101510.94;;;9.53;100.00
71504;BME280;59323;50.874;7.028;2023-02-19T03:18:25;101521.78;;;9.53;100.00
71504;BME280;59323;50.874;7.028;2023-02-19T03:21:10;101521.78;;;9.53;100.00
71504;BME280;59323;50.874;7.028;2023-02-19T03:23:36;101530.72;;;9.53;100.00
71504;BME280;59323;50.874;7.028;2023-02-19T03:26:21;101536.94;;;9.54;100.00
71504;BME280;59323;50.874;7.028;2023-02-19T03:28:49;101540.13;;;9.56;100.00
71504;BME280;59323;50.874;7.028;2023-02-19T03:31:34;101534.56;;;9.52;100.00
71504;BME280;59323;50.874;7.028;2023-02-19T03:34:07;101542.38;;;9.54;100.00
71504;BME280;59323;50.874;7.028;2023-02-19T03:36:38;101543.16;;;9.54;100.00
71504;BME280;59323;50.874;7.028;2023-02-19T03:39:06;101541.03;;;9.60;100.00
71504;BME280;59323;50.874;7.028;2023-02-19T03:41:43;101538.97;;;9.57;100.00
71504;BME280;59323;50.874;7.028;2023-02-19T03:47:14;101555.38;;;9.61;100.00
71504;BME280;59323;50.874;7.028;2023-02-19T03:49:50;101554.00;;;9.54;100.00
71504;BME280;59323;50.874;7.028;2023-02-19T04:00:08;101550.06;;;9.52;100.00
71504;BME280;59323;50.874;7.028;2023-02-19T04:05:29;101557.84;;;9.53;100.00
71504;BME280;59323;50.874;7.028;2023-02-19T04:08:04;101575.84;;;9.58;100.00
71504;BME280;59323;50.874;7.028;2023-02-19T04:10:30;101567.13;;;9.52;100.00
71504;BME280;59323;50.874;7.028;2023-02-19T04:13:03;101578.09;;;9.56;100.00
71504;BME280;59323;50.874;7.028;2023-02-19T04:15:32;101577.44;;;9.59;100.00
71504;BME280;59323;50.874;7.028;2023-02-19T04:18:04;101582.41;;;9.57;100.00
71504;BME280;59323;50.874;7.028;2023-02-19T04:20:34;101587.03;;;9.57;100.00
71504;BME280;59323;50.874;7.028;2023-02-19T04:23:00;101592.00;;;9.54;100.00
71504;BME280;59323;50.874;7.028;2023-02-19T04:25:27;101581.69;;;9.48;100.00
71504;BME280;59323;50.874;7.028;2023-02-19T04:27:53;101576.94;;;9.45;100.00
71504;BME280;59323;50.874;7.028;2023-02-19T04:30:20;101583.03;;;9.42;100.00
71504;BME280;59323;50.874;7.028;2023-02-19T04:32:46;101589.47;;;9.37;100.00
71504;BME280;59323;50.874;7.028;2023-02-19T04:35:11;101601.25;;;9.41;100.00
71504;BME280;59323;50.874;7.028;2023-02-19T04:37:36;101607.00;;;9.40;100.00
71504;BME280;59323;50.874;7.028;2023-02-19T04:40:02;101608.47;;;9.37;100.00
71504;BME280;59323;50.874;7.028;2023-02-19T04:42:28;101616.13;;;9.35;100.00
71504;BME280;59323;50.874;7.028;2023-02-19T04:44:53;101622.81;;;9.38;100.00
71504;BME280;59323;50.874;7.028;2023-02-19T04:47:19;101627.56;;;9.41;100.00
71504;BME280;59323;50.874;7.028;2023-02-19T04:49:44;101613.88;;;9.37;100.00
71504;BME280;59323;50.874;7.028;2023-02-19T04:52:10;101623.16;;;9.36;100.00
71504;BME280;59323;50.874;7.028;2023-02-19T04:54:35;101624.75;;;9.37;100.00
71504;BME280;59323;50.874;7.028;2023-02-19T04:57:00;101630.03;;;9.34;100.00
71504;BME280;59323;50.874;7.028;2023-02-19T04:59:26;101626.06;;;9.31;100.00
71504;BME280;59323;50.874;7.028;2023-02-19T05:01:51;101620.66;;;9.31;100.00
71504;BME280;59323;50.874;7.028;2023-02-19T05:04:17;101618.94;;;9.27;100.00
71504;BME280;59323;50.874;7.028;2023-02-19T05:06:42;101621.97;;;9.25;100.00
71504;BME280;59323;50.874;7.028;2023-02-19T05:09:08;101622.44;;;9.27;100.00
71504;BME280;59323;50.874;7.028;2023-02-19T05:11:33;101630.44;;;9.24;100.00
71504;BME280;59323;50.874;7.028;2023-02-19T05:13:59;101629.06;;;9.17;100.00
71504;BME280;59323;50.874;7.028;2023-02-19T05:16:24;101626.94;;;9.23;100.00
71504;BME280;59323;50.874;7.028;2023-02-19T05:18:50;101629.19;;;9.21;100.00
71504;BME280;59323;50.874;7.028;2023-02-19T05:21:16;101627.63;;;9.20;100.00
71504;BME280;59323;50.874;7.028;2023-02-19T05:23:41;101633.69;;;9.17;100.00
71504;BME280;59323;50.874;7.028;2023-02-19T05:26:11;101636.53;;;9.20;100.00
71504;BME280;59323;50.874;7.028;2023-02-19T05:28:37;101639.84;;;9.26;100.00
71504;BME280;59323;50.874;7.028;2023-02-19T05:31:07;101643.88;;;9.20;100.00
71504;BME280;59323;50.874;7.028;2023-02-19T05:33:32;101648.06;;;9.17;100.00
71504;BME280;59323;50.874;7.028;2023-02-19T05:35:58;101642.03;;;9.12;100.00
71504;BME280;59323;50.874;7.028;2023-02-19T05:38:24;101651.56;;;9.18;100.00
71504;BME280;59323;50.874;7.028;2023-02-19T05:40:50;101666.38;;;9.20;100.00
71504;BME280;59323;50.874;7.028;2023-02-19T05:43:15;101662.00;;;9.28;100.00
71504;BME280;59323;50.874;7.028;2023-02-19T05:45:41;101676.44;;;9.20;100.00
71504;BME280;59323;50.874;7.028;2023-02-19T05:48:07;101665.78;;;9.15;100.00
71504;BME280;59323;50.874;7.028;2023-02-19T05:50:34;101676.75;;;9.18;100.00
71504;BME280;59323;50.874;7.028;2023-02-19T05:53:00;101682.19;;;9.18;100.00
71504;BME280;59323;50.874;7.028;2023-02-19T05:55:27;101695.28;;;9.16;100.00
71504;BME280;59323;50.874;7.028;2023-02-19T05:57:52;101694.03;;;9.14;100.00
71504;BME280;59323;50.874;7.028;2023-02-19T06:00:19;101690.06;;;9.11;100.00
71504;BME280;59323;50.874;7.028;2023-02-19T06:02:44;101693.22;;;9.13;100.00
71504;BME280;59323;50.874;7.028;2023-02-19T06:05:10;101688.94;;;9.12;100.00
71504;BME280;59323;50.874;7.028;2023-02-19T06:07:35;101698.50;;;9.10;100.00
71504;BME280;59323;50.874;7.028;2023-02-19T06:10:06;101704.25;;;9.08;100.00
71504;BME280;59323;50.874;7.028;2023-02-19T06:12:32;101702.31;;;9.09;100.00
71504;BME280;59323;50.874;7.028;2023-02-19T06:14:57;101711.13;;;9.06;100.00
71504;BME280;59323;50.874;7.028;2023-02-19T06:17:23;101707.75;;;9.09;100.00
71504;BME280;59323;50.874;7.028;2023-02-19T06:19:48;101708.88;;;9.08;100.00
71504;BME280;59323;50.874;7.028;2023-02-19T06:22:14;101702.97;;;9.06;100.00
71504;BME280;59323;50.874;7.028;2023-02-19T06:24:40;101706.81;;;9.05;100.00
71504;BME280;59323;50.874;7.028;2023-02-19T06:27:06;101714.50;;;9.03;100.00
71504;BME280;59323;50.874;7.028;2023-02-19T06:29:32;101719.31;;;8.97;100.00
71504;BME280;59323;50.874;7.028;2023-02-19T06:31:58;101716.13;;;8.95;100.00
71504;BME280;59323;50.874;7.028;2023-02-19T06:34:24;101720.75;;;8.95;100.00
71504;BME280;59323;50.874;7.028;2023-02-19T06:36:49;101721.09;;;8.93;100.00
71504;BME280;59323;50.874;7.028;2023-02-19T06:39:15;101719.19;;;8.94;100.00
71504;BME280;59323;50.874;7.028;2023-02-19T06:41:40;101716.94;;;8.96;100.00
71504;BME280;59323;50.874;7.028;2023-02-19T06:44:06;101729.69;;;8.95;100.00
71504;BME280;59323;50.874;7.028;2023-02-19T06:46:31;101727.31;;;8.94;100.00
71504;BME280;59323;50.874;7.028;2023-02-19T06:48:57;101728.69;;;9.00;100.00
71504;BME280;59323;50.874;7.028;2023-02-19T06:51:22;101735.25;;;8.99;100.00
71504;BME280;59323;50.874;7.028;2023-02-19T06:53:50;101733.06;;;8.92;100.00
71504;BME280;59323;50.874;7.028;2023-02-19T06:56:35;101739.06;;;8.98;100.00
71504;BME280;59323;50.874;7.028;2023-02-19T06:59:12;101745.50;;;8.93;100.00
71504;BME280;59323;50.874;7.028;2023-02-19T07:01:38;101747.69;;;9.00;100.00
71504;BME280;59323;50.874;7.028;2023-02-19T07:04:04;101752.50;;;8.94;100.00
71504;BME280;59323;50.874;7.028;2023-02-19T07:06:32;101749.47;;;8.96;100.00
71504;BME280;59323;50.874;7.028;2023-02-19T07:08:58;101750.91;;;8.93;100.00
71504;BME280;59323;50.874;7.028;2023-02-19T07:11:24;101757.00;;;8.90;100.00
71504;BME280;59323;50.874;7.028;2023-02-19T07:13:57;101754.59;;;8.88;100.00
71504;BME280;59323;50.874;7.028;2023-02-19T07:56:37;101846.47;;;8.81;100.00
71504;BME280;59323;50.874;7.028;2023-02-19T07:59:03;101842.63;;;8.82;100.00
71504;BME280;59323;50.874;7.028;2023-02-19T08:01:28;101846.47;;;8.81;100.00
71504;BME280;59323;50.874;7.028;2023-02-19T08:04:13;101846.47;;;8.81;100.00
71504;BME280;59323;50.874;7.028;2023-02-19T08:06:40;101852.84;;;8.85;100.00
71504;BME280;59323;50.874;7.028;2023-02-19T08:09:05;101859.84;;;8.86;100.00
71504;BME280;59323;50.874;7.028;2023-02-19T08:11:31;101867.31;;;8.89;100.00
71504;BME280;59323;50.874;7.028;2023-02-19T08:14:15;101867.28;;;8.98;100.00
71504;BME280;59323;50.874;7.028;2023-02-19T08:16:50;101874.94;;;8.96;100.00
71504;BME280;59323;50.874;7.028;2023-02-19T08:19:15;101878.94;;;8.99;100.00
71504;BME280;59323;50.874;7.028;2023-02-19T08:21:40;101874.16;;;8.96;100.00
71504;BME280;59323;50.874;7.028;2023-02-19T08:24:06;101881.47;;;9.04;100.00
71504;BME280;59323;50.874;7.028;2023-02-19T08:26:32;101893.88;;;9.05;100.00
71504;BME280;59323;50.874;7.028;2023-02-19T08:28:57;101884.31;;;9.07;100.00
71504;BME280;59323;50.874;7.028;2023-02-19T08:31:23;101890.22;;;9.09;100.00
71504;BME280;59323;50.874;7.028;2023-02-19T08:33:49;101886.22;;;9.07;100.00
71504;BME280;59323;50.874;7.028;2023-02-19T08:36:14;101895.94;;;9.08;100.00
71504;BME280;59323;50.874;7.028;2023-02-19T08:38:40;101899.00;;;9.06;100.00
71504;BME280;59323;50.874;7.028;2023-02-19T08:41:06;101906.00;;;9.07;100.00
71504;BME280;59323;50.874;7.028;2023-02-19T08:43:32;101906.47;;;9.09;100.00
71504;BME280;59323;50.874;7.028;2023-02-19T08:45:57;101905.22;;;9.07;100.00
71504;BME280;59323;50.874;7.028;2023-02-19T08:48:23;101914.78;;;9.13;100.00
71504;BME280;59323;50.874;7.028;2023-02-19T08:51:03;101913.19;;;9.12;100.00
71504;BME280;59323;50.874;7.028;2023-02-19T08:53:33;101916.53;;;9.17;100.00
71504;BME280;59323;50.874;7.028;2023-02-19T08:56:06;101907.59;;;9.17;100.00
71504;BME280;59323;50.874;7.028;2023-02-19T08:58:32;101913.63;;;9.23;100.00
71504;BME280;59323;50.874;7.028;2023-02-19T09:00:57;101922.88;;;9.21;100.00
71504;BME280;59323;50.874;7.028;2023-02-19T09:03:23;101915.03;;;9.29;100.00
71504;BME280;59323;50.874;7.028;2023-02-19T09:05:48;101917.41;;;9.30;100.00
71504;BME280;59323;50.874;7.028;2023-02-19T09:08:13;101923.91;;;9.38;100.00
71504;BME280;59323;50.874;7.028;2023-02-19T09:10:40;101924.66;;;9.47;100.00
71504;BME280;59323;50.874;7.028;2023-02-19T09:13:05;101921.63;;;9.48;100.00
71504;BME280;59323;50.874;7.028;2023-02-19T09:15:30;101923.31;;;9.62;100.00
71504;BME280;59323;50.874;7.028;2023-02-19T09:17:57;101921.34;;;9.71;100.00
71504;BME280;59323;50.874;7.028;2023-02-19T09:20:22;101919.41;;;9.80;100.00
71504;BME280;59323;50.874;7.028;2023-02-19T09:22:48;101921.78;;;9.81;100.00
71504;BME280;59323;50.874;7.028;2023-02-19T09:25:13;101924.81;;;9.80;100.00
71504;BME280;59323;50.874;7.028;2023-02-19T09:27:39;101934.09;;;9.79;100.00
71504;BME280;59323;50.874;7.028;2023-02-19T09:30:04;101936.63;;;9.84;99.94
71504;BME280;59323;50.874;7.028;2023-02-19T09:32:30;101945.69;;;9.88;99.39
71504;BME280;59323;50.874;7.028;2023-02-19T09:34:55;101938.66;;;9.87;100.00
71504;BME280;59323;50.874;7.028;2023-02-19T09:37:27;101942.50;;;9.86;100.00
71504;BME280;59323;50.874;7.028;2023-02-19T09:39:53;101947.59;;;9.88;99.80
71504;BME280;59323;50.874;7.028;2023-02-19T09:42:23;101945.69;;;9.88;99.44
71504;BME280;59323;50.874;7.028;2023-02-19T09:44:54;101943.31;;;9.87;98.24
71504;BME280;59323;50.874;7.028;2023-02-19T09:47:25;101950.19;;;9.84;98.25
71504;BME280;59323;50.874;7.028;2023-02-19T09:49:54;101955.94;;;9.82;97.49
71504;BME280;59323;50.874;7.028;2023-02-19T09:52:28;101963.44;;;9.85;97.25
71504;BME280;59323;50.874;7.028;2023-02-19T09:54:59;101967.88;;;9.90;95.80
71504;BME280;59323;50.874;7.028;2023-02-19T09:57:28;101973.97;;;9.87;96.49
71504;BME280;59323;50.874;7.028;2023-02-19T10:00:05;101975.94;;;9.78;98.23
71504;BME280;59323;50.874;7.028;2023-02-19T10:02:37;101971.78;;;9.80;97.54
71504;BME280;59323;50.874;7.028;2023-02-19T10:05:11;101993.81;;;9.79;98.54
71504;BME280;59323;50.874;7.028;2023-02-19T10:07:41;101987.25;;;9.80;98.16
71504;BME280;59323;50.874;7.028;2023-02-19T10:12:46;101979.78;;;9.77;99.31
71504;BME280;59323;50.874;7.028;2023-02-19T10:15:19;101988.53;;;9.74;100.00
71504;BME280;59323;50.874;7.028;2023-02-19T10:17:46;101988.88;;;9.72;99.70
71504;BME280;59323;50.874;7.028;2023-02-19T10:20:18;101983.28;;;9.69;100.00
71504;BME280;59323;50.874;7.028;2023-02-19T10:22:56;101990.00;;;9.71;100.00
71504;BME280;59323;50.874;7.028;2023-02-19T10:25:23;102008.50;;;9.78;99.13
71504;BME280;59323;50.874;7.028;2023-02-19T10:27:48;102010.09;;;9.79;99.78
71504;BME280;59323;50.874;7.028;2023-02-19T10:30:21;102022.69;;;9.83;100.00
71504;BME280;59323;50.874;7.028;2023-02-19T10:35:25;102030.31;;;9.90;97.90
71504;BME280;59323;50.874;7.028;2023-02-19T10:37:51;102038.31;;;9.87;99.05
71504;BME280;59323;50.874;7.028;2023-02-19T10:40:26;102037.34;;;9.91;98.67
71504;BME280;59323;50.874;7.028;2023-02-19T10:42:56;102018.81;;;9.93;98.89
71504;BME280;59323;50.874;7.028;2023-02-19T10:45:43;102026.44;;;10.00;97.43
71504;BME280;59323;50.874;7.028;2023-02-19T10:48:24;102043.34;;;10.05;97.19
71504;BME280;59323;50.874;7.028;2023-02-19T10:50:54;102055.66;;;10.03;97.31
71504;BME280;59323;50.874;7.028;2023-02-19T10:53:33;102062.84;;;9.99;96.69
71504;BME280;59323;50.874;7.028;2023-02-19T10:56:14;102068.28;;;9.99;96.93
71504;BME280;59323;50.874;7.028;2023-02-19T10:58:42;102069.41;;;9.98;95.97
71504;BME280;59323;50.874;7.028;2023-02-19T11:01:23;102064.50;;;9.91;96.00
71504;BME280;59323;50.874;7.028;2023-02-19T11:03:52;102067.53;;;9.90;96.57
71504;BME280;59323;50.874;7.028;2023-02-19T11:06:36;102065.81;;;9.85;97.02
71504;BME280;59323;50.874;7.028;2023-02-19T11:09:01;102080.31;;;9.89;96.38
71504;BME280;59323;50.874;7.028;2023-02-19T11:11:35;102075.53;;;9.86;97.47
71504;BME280;59323;50.874;7.028;2023-02-19T11:14:04;102067.25;;;9.82;98.63
71504;BME280;59323;50.874;7.028;2023-02-19T11:16:43;102072.31;;;9.93;98.58
71504;BME280;59323;50.874;7.028;2023-02-19T11:19:38;102079.28;;;10.02;97.99
71504;BME280;59323;50.874;7.028;2023-02-19T11:22:19;102074.31;;;10.04;96.51
71504;BME280;59323;50.874;7.028;2023-02-19T11:24:51;102087.25;;;10.07;94.36
71504;BME280;59323;50.874;7.028;2023-02-19T11:27:20;102082.94;;;10.06;94.75
71504;BME280;59323;50.874;7.028;2023-02-19T11:29:46;102085.66;;;10.06;95.71
71504;BME280;59323;50.874;7.028;2023-02-19T11:32:24;102089.50;;;10.05;94.94
71504;BME280;59323;50.874;7.028;2023-02-19T11:34:51;102094.28;;;10.08;94.86
71504;BME280;59323;50.874;7.028;2023-02-19T11:37:18;102090.63;;;10.04;95.39
71504;BME280;59323;50.874;7.028;2023-02-19T11:39:49;102091.13;;;9.98;96.70
71504;BME280;59323;50.874;7.028;2023-02-19T11:45:24;102080.41;;;10.01;97.13
71504;BME280;59323;50.874;7.028;2023-02-19T11:50:44;102071.00;;;9.99;96.38
71504;BME280;59323;50.874;7.028;2023-02-19T11:53:26;102081.53;;;10.00;97.71
71504;BME280;59323;50.874;7.028;2023-02-19T11:56:18;102082.81;;;10.03;96.85
71504;BME280;59323;50.874;7.028;2023-02-19T12:06:25;102082.94;;;10.06;94.51
71504;BME280;59323;50.874;7.028;2023-02-19T12:11:39;102076.56;;;10.02;97.40
71504;BME280;59323;50.874;7.028;2023-02-19T12:34:46;102071.34;;;10.56;94.23
71504;BME280;59323;50.874;7.028;2023-02-19T12:45:07;102061.25;;;11.43;91.56
71504;BME280;59323;50.874;7.028;2023-02-19T12:47:41;102065.03;;;11.51;91.44
71504;BME280;59323;50.874;7.028;2023-02-19T12:50:34;102073.44;;;11.58;90.82
71504;BME280;59323;50.874;7.028;2023-02-19T12:53:10;102061.84;;;11.61;90.10
71504;BME280;59323;50.874;7.028;2023-02-19T12:55:42;102062.09;;;11.68;89.33
71504;BME280;59323;50.874;7.028;2023-02-19T12:58:13;102068.75;;;11.80;89.20
71504;BME280;59323;50.874;7.028;2023-02-19T13:00:49;102072.94;;;11.89;86.32
71504;BME280;59323;50.874;7.028;2023-02-19T13:03:31;102077.72;;;11.92;88.04
71504;BME280;59323;50.874;7.028;2023-02-19T13:08:35;102075.56;;;11.86;87.50
71504;BME280;59323;50.874;7.028;2023-02-19T13:11:07;102082.03;;;11.81;87.02
71504;BME280;59323;50.874;7.028;2023-02-19T13:13:39;102089.47;;;11.72;87.12
71504;BME280;59323;50.874;7.028;2023-02-19T13:16:10;102095.44;;;11.65;85.76
71504;BME280;59323;50.874;7.028;2023-02-19T13:18:43;102091.22;;;11.56;84.82
71504;BME280;59323;50.874;7.028;2023-02-19T13:21:10;102093.94;;;11.43;84.41
71504;BME280;59323;50.874;7.028;2023-02-19T13:23:40;102103.06;;;11.27;85.97
71504;BME280;59323;50.874;7.028;2023-02-19T13:37:36;102116.75;;;10.56;94.21
71504;BME280;59323;50.874;7.028;2023-02-19T13:40:18;102111.84;;;10.49;94.42
71504;BME280;59323;50.874;7.028;2023-02-19T13:42:54;102118.28;;;10.36;94.85
71504;BME280;59323;50.874;7.028;2023-02-19T13:45:42;102127.13;;;10.24;95.85
71504;BME280;59323;50.874;7.028;2023-02-19T13:50:49;102121.44;;;10.08;98.15
71504;BME280;59323;50.874;7.028;2023-02-19T13:59:25;102132.81;;;10.02;98.87
71504;BME280;59323;50.874;7.028;2023-02-19T14:30:31;102158.72;;;9.91;98.74
71504;BME280;59323;50.874;7.028;2023-02-19T14:33:00;102161.13;;;9.92;99.16
71504;BME280;59323;50.874;7.028;2023-02-19T14:35:34;102163.69;;;9.89;100.00
71504;BME280;59323;50.874;7.028;2023-02-19T14:38:02;102161.78;;;9.89;100.00
71504;BME280;59323;50.874;7.028;2023-02-19T14:40:36;102168.63;;;9.95;97.16
71504;BME280;59323;50.874;7.028;2023-02-19T14:43:04;102181.91;;;9.88;99.55
71504;BME280;59323;50.874;7.028;2023-02-19T14:45:37;102181.91;;;9.88;98.87
71504;BME280;59323;50.874;7.028;2023-02-19T14:48:05;102188.59;;;9.91;98.88
71504;BME280;59323;50.874;7.028;2023-02-19T14:50:31;102184.59;;;9.88;99.07
71504;BME280;59323;50.874;7.028;2023-02-19T14:53:02;102188.75;;;9.94;98.31
71504;BME280;59323;50.874;7.028;2023-02-19T14:55:30;102177.09;;;9.94;98.32
71504;BME280;59323;50.874;7.028;2023-02-19T14:58:00;102182.84;;;9.92;98.33
71504;BME280;59323;50.874;7.028;2023-02-19T15:00:33;102177.56;;;9.96;98.30
71504;BME280;59323;50.874;7.028;2023-02-19T15:02:59;102188.59;;;9.91;98.71
71504;BME280;59323;50.874;7.028;2023-02-19T15:05:29;102198.81;;;9.94;98.27
71504;BME280;59323;50.874;7.028;2023-02-19T15:07:57;102189.41;;;9.91;97.25
71504;BME280;59323;50.874;7.028;2023-02-19T15:10:26;102193.56;;;9.89;98.21
71504;BME280;59323;50.874;7.028;2023-02-19T15:12:55;102184.94;;;9.87;97.83
71504;BME280;59323;50.874;7.028;2023-02-19T15:15:24;102196.59;;;9.87;97.40
71504;BME280;59323;50.874;7.028;2023-02-19T15:17:51;102186.38;;;9.84;97.99
71504;BME280;59323;50.874;7.028;2023-02-19T15:20:20;102185.59;;;9.83;97.68
71504;BME280;59323;50.874;7.028;2023-02-19T15:22:47;102178.41;;;9.79;97.14
71504;BME280;59323;50.874;7.028;2023-02-19T15:25:20;102183.03;;;9.78;96.68
71504;BME280;59323;50.874;7.028;2023-02-19T15:27:46;102171.72;;;9.76;95.72
71504;BME280;59323;50.874;7.028;2023-02-19T15:32:53;102171.06;;;9.71;95.57
71504;BME280;59323;50.874;7.028;2023-02-19T15:35:20;102160.53;;;9.69;94.58
71504;BME280;59323;50.874;7.028;2023-02-19T15:37:47;102155.25;;;9.64;95.53
71504;BME280;59323;50.874;7.028;2023-02-19T15:40:13;102155.91;;;9.61;95.90
71504;BME280;59323;50.874;7.028;2023-02-19T15:42:42;102151.28;;;9.62;94.92
71504;BME280;59323;50.874;7.028;2023-02-19T15:45:23;102142.50;;;9.56;96.03
71504;BME280;59323;50.874;7.028;2023-02-19T15:50:35;102132.44;;;9.57;94.92
71504;BME280;59323;50.874;7.028;2023-02-19T15:53:06;102123.38;;;9.52;95.58
71504;BME280;59323;50.874;7.028;2023-02-19T16:03:38;102127.84;;;9.40;95.92
71504;BME280;59323;50.874;7.028;2023-02-19T16:06:08;102130.91;;;9.38;96.39
71504;BME280;59323;50.874;7.028;2023-02-19T16:08:41;102138.38;;;9.41;95.58
71504;BME280;59323;50.874;7.028;2023-02-19T16:13:48;102135.53;;;9.38;95.90